sensor_id;sensor_type;location;lat;lon;timestamp;P1;durP1;ratioP1;P2;durP2;ratioP2
42030;SDS011;27709;52.036;5.906;2023-11-19T00:01:55;24.17;;;17.15;;
42030;SDS011;27709;52.036;5.906;2023-11-19T00:04:22;26.50;;;16.92;;
42030;SDS011;27709;52.036;5.906;2023-11-19T00:06:47;22.02;;;14.40;;
42030;SDS011;27709;52.036;5.906;2023-11-19T00:09:13;35.88;;;19.55;;
42030;SDS011;27709;52.036;5.906;2023-11-19T00:11:41;30.13;;;16.48;;
42030;SDS011;27709;52.036;5.906;2023-11-19T00:14:07;22.98;;;15.88;;
42030;SDS011;27709;52.036;5.906;2023-11-19T00:16:33;27.30;;;16.60;;
42030;SDS011;27709;52.036;5.906;2023-11-19T00:18:59;27.05;;;16.50;;
42030;SDS011;27709;52.036;5.906;2023-11-19T00:21:25;29.67;;;17.67;;
42030;SDS011;27709;52.036;5.906;2023-11-19T00:23:53;27.80;;;16.63;;
42030;SDS011;27709;52.036;5.906;2023-11-19T00:26:19;29.70;;;15.90;;
42030;SDS011;27709;52.036;5.906;2023-11-19T00:28:45;20.73;;;13.48;;
42030;SDS011;27709;52.036;5.906;2023-11-19T00:31:12;24.52;;;14.18;;
42030;SDS011;27709;52.036;5.906;2023-11-19T00:33:38;22.80;;;12.90;;
42030;SDS011;27709;52.036;5.906;2023-11-19T00:36:04;23.38;;;13.55;;
42030;SDS011;27709;52.036;5.906;2023-11-19T00:38:30;19.95;;;12.50;;
42030;SDS011;27709;52.036;5.906;2023-11-19T00:40:56;24.80;;;13.23;;
42030;SDS011;27709;52.036;5.906;2023-11-19T00:43:21;30.38;;;14.95;;
42030;SDS011;27709;52.036;5.906;2023-11-19T00:45:47;19.35;;;11.52;;
42030;SDS011;27709;52.036;5.906;2023-11-19T00:48:15;24.42;;;11.57;;
42030;SDS011;27709;52.036;5.906;2023-11-19T00:50:41;22.60;;;11.55;;
42030;SDS011;27709;52.036;5.906;2023-11-19T00:53:09;24.05;;;11.30;;
42030;SDS011;27709;52.036;5.906;2023-11-19T00:55:34;18.58;;;9.55;;
42030;SDS011;27709;52.036;5.906;2023-11-19T00:58:00;20.85;;;9.82;;
42030;SDS011;27709;52.036;5.906;2023-11-19T01:00:25;21.25;;;9.40;;
42030;SDS011;27709;52.036;5.906;2023-11-19T01:02:52;24.15;;;8.40;;
42030;SDS011;27709;52.036;5.906;2023-11-19T01:05:18;20.75;;;8.52;;
42030;SDS011;27709;52.036;5.906;2023-11-19T01:07:47;19.23;;;7.40;;
42030;SDS011;27709;52.036;5.906;2023-11-19T01:10:13;23.08;;;8.75;;
42030;SDS011;27709;52.036;5.906;2023-11-19T01:12:40;23.02;;;8.20;;
42030;SDS011;27709;52.036;5.906;2023-11-19T01:15:07;17.35;;;8.05;;
42030;SDS011;27709;52.036;5.906;2023-11-19T01:17:33;20.45;;;7.53;;
42030;SDS011;27709;52.036;5.906;2023-11-19T01:19:58;19.70;;;7.97;;
42030;SDS011;27709;52.036;5.906;2023-11-19T01:22:24;22.10;;;8.40;;
42030;SDS011;27709;52.036;5.906;2023-11-19T01:24:52;20.92;;;6.95;;
42030;SDS011;27709;52.036;5.906;2023-11-19T01:27:19;17.75;;;7.15;;
42030;SDS011;27709;52.036;5.906;2023-11-19T01:29:44;18.42;;;5.72;;
42030;SDS011;27709;52.036;5.906;2023-11-19T01:32:10;26.02;;;7.70;;
42030;SDS011;27709;52.036;5.906;2023-11-19T01:34:37;17.98;;;5.55;;
42030;SDS011;27709;52.036;5.906;2023-11-19T01:37:03;22.73;;;6.00;;
42030;SDS011;27709;52.036;5.906;2023-11-19T01:39:28;22.10;;;6.50;;
42030;SDS011;27709;52.036;5.906;2023-11-19T01:41:54;18.45;;;5.93;;
42030;SDS011;27709;52.036;5.906;2023-11-19T01:44:20;18.05;;;5.50;;
42030;SDS011;27709;52.036;5.906;2023-11-19T01:46:45;20.55;;;7.10;;
42030;SDS011;27709;52.036;5.906;2023-11-19T01:49:15;22.88;;;5.88;;
42030;SDS011;27709;52.036;5.906;2023-11-19T01:51:42;19.35;;;5.50;;
42030;SDS011;27709;52.036;5.906;2023-11-19T01:54:08;22.30;;;5.72;;
42030;SDS011;27709;52.036;5.906;2023-11-19T01:56:34;21.77;;;5.90;;
42030;SDS011;27709;52.036;5.906;2023-11-19T01:59:00;21.08;;;5.82;;
42030;SDS011;27709;52.036;5.906;2023-11-19T02:01:27;23.33;;;6.10;;
42030;SDS011;27709;52.036;5.906;2023-11-19T02:03:54;22.67;;;5.70;;
42030;SDS011;27709;52.036;5.906;2023-11-19T02:06:20;19.38;;;5.38;;
42030;SDS011;27709;52.036;5.906;2023-11-19T02:08:46;24.30;;;6.70;;
42030;SDS011;27709;52.036;5.906;2023-11-19T02:11:12;25.88;;;5.35;;
42030;SDS011;27709;52.036;5.906;2023-11-19T02:13:37;19.70;;;5.10;;
42030;SDS011;27709;52.036;5.906;2023-11-19T02:16:06;24.08;;;5.20;;
42030;SDS011;27709;52.036;5.906;2023-11-19T02:18:34;24.08;;;5.38;;
42030;SDS011;27709;52.036;5.906;2023-11-19T02:20:59;23.38;;;5.38;;
42030;SDS011;27709;52.036;5.906;2023-11-19T02:23:28;19.83;;;4.90;;
42030;SDS011;27709;52.036;5.906;2023-11-19T02:28:58;16.92;;;4.68;;
42030;SDS011;27709;52.036;5.906;2023-11-19T02:31:24;21.92;;;5.35;;
42030;SDS011;27709;52.036;5.906;2023-11-19T02:33:49;28.90;;;5.05;;
42030;SDS011;27709;52.036;5.906;2023-11-19T02:36:15;27.70;;;4.57;;
42030;SDS011;27709;52.036;5.906;2023-11-19T02:38:41;26.02;;;4.85;;
42030;SDS011;27709;52.036;5.906;2023-11-19T02:41:07;28.20;;;5.00;;
42030;SDS011;27709;52.036;5.906;2023-11-19T02:43:33;25.80;;;5.45;;
42030;SDS011;27709;52.036;5.906;2023-11-19T02:46:03;29.63;;;4.80;;
42030;SDS011;27709;52.036;5.906;2023-11-19T02:48:32;21.02;;;4.47;;
42030;SDS011;27709;52.036;5.906;2023-11-19T02:51:05;24.90;;;5.05;;
42030;SDS011;27709;52.036;5.906;2023-11-19T02:53:34;26.20;;;4.70;;
42030;SDS011;27709;52.036;5.906;2023-11-19T02:56:02;30.02;;;5.05;;
42030;SDS011;27709;52.036;5.906;2023-11-19T02:58:36;29.20;;;5.28;;
42030;SDS011;27709;52.036;5.906;2023-11-19T03:01:02;24.75;;;4.30;;
42030;SDS011;27709;52.036;5.906;2023-11-19T03:03:37;25.80;;;4.38;;
42030;SDS011;27709;52.036;5.906;2023-11-19T03:06:05;32.50;;;5.07;;
42030;SDS011;27709;52.036;5.906;2023-11-19T03:08:32;26.90;;;4.50;;
42030;SDS011;27709;52.036;5.906;2023-11-19T03:10:59;30.58;;;4.43;;
42030;SDS011;27709;52.036;5.906;2023-11-19T03:13:25;28.88;;;4.70;;
42030;SDS011;27709;52.036;5.906;2023-11-19T03:15:50;31.92;;;5.68;;
42030;SDS011;27709;52.036;5.906;2023-11-19T03:18:16;26.50;;;4.93;;
42030;SDS011;27709;52.036;5.906;2023-11-19T03:20:42;33.55;;;5.25;;
42030;SDS011;27709;52.036;5.906;2023-11-19T03:23:07;22.77;;;4.65;;
42030;SDS011;27709;52.036;5.906;2023-11-19T03:25:33;31.20;;;5.20;;
42030;SDS011;27709;52.036;5.906;2023-11-19T03:27:59;33.45;;;4.68;;
42030;SDS011;27709;52.036;5.906;2023-11-19T03:30:28;26.67;;;4.50;;
42030;SDS011;27709;52.036;5.906;2023-11-19T03:32:55;29.48;;;5.40;;
42030;SDS011;27709;52.036;5.906;2023-11-19T03:35:21;27.65;;;4.57;;
42030;SDS011;27709;52.036;5.906;2023-11-19T03:37:47;29.67;;;4.95;;
42030;SDS011;27709;52.036;5.906;2023-11-19T03:40:12;28.25;;;5.00;;
42030;SDS011;27709;52.036;5.906;2023-11-19T03:42:39;31.52;;;4.82;;
42030;SDS011;27709;52.036;5.906;2023-11-19T03:45:09;31.83;;;5.10;;
42030;SDS011;27709;52.036;5.906;2023-11-19T03:47:35;29.85;;;4.70;;
42030;SDS011;27709;52.036;5.906;2023-11-19T03:50:01;33.22;;;5.90;;
42030;SDS011;27709;52.036;5.906;2023-11-19T03:52:29;35.05;;;5.47;;
42030;SDS011;27709;52.036;5.906;2023-11-19T03:54:57;34.22;;;5.30;;
42030;SDS011;27709;52.036;5.906;2023-11-19T03:57:22;25.52;;;4.75;;
42030;SDS011;27709;52.036;5.906;2023-11-19T03:59:48;36.97;;;6.75;;
42030;SDS011;27709;52.036;5.906;2023-11-19T04:02:14;31.38;;;5.18;;
42030;SDS011;27709;52.036;5.906;2023-11-19T04:04:40;35.22;;;5.85;;
42030;SDS011;27709;52.036;5.906;2023-11-19T04:07:06;34.38;;;5.57;;
42030;SDS011;27709;52.036;5.906;2023-11-19T04:09:34;43.17;;;6.53;;
42030;SDS011;27709;52.036;5.906;2023-11-19T04:12:02;42.15;;;6.10;;
42030;SDS011;27709;52.036;5.906;2023-11-19T04:14:28;31.45;;;5.47;;
42030;SDS011;27709;52.036;5.906;2023-11-19T04:16:54;38.22;;;6.50;;
42030;SDS011;27709;52.036;5.906;2023-11-19T04:19:20;37.42;;;6.50;;
42030;SDS011;27709;52.036;5.906;2023-11-19T04:21:46;37.45;;;6.93;;
42030;SDS011;27709;52.036;5.906;2023-11-19T04:24:12;36.83;;;6.30;;
42030;SDS011;27709;52.036;5.906;2023-11-19T04:26:42;34.75;;;7.63;;
42030;SDS011;27709;52.036;5.906;2023-11-19T04:29:09;39.63;;;9.18;;
42030;SDS011;27709;52.036;5.906;2023-11-19T04:31:39;44.45;;;9.82;;
42030;SDS011;27709;52.036;5.906;2023-11-19T04:34:05;36.80;;;9.32;;
42030;SDS011;27709;52.036;5.906;2023-11-19T04:36:31;38.30;;;8.98;;
42030;SDS011;27709;52.036;5.906;2023-11-19T04:38:58;38.38;;;8.35;;
42030;SDS011;27709;52.036;5.906;2023-11-19T04:41:24;43.80;;;8.40;;
42030;SDS011;27709;52.036;5.906;2023-11-19T04:43:50;44.75;;;7.75;;
42030;SDS011;27709;52.036;5.906;2023-11-19T04:46:16;38.90;;;7.60;;
42030;SDS011;27709;52.036;5.906;2023-11-19T04:48:42;39.17;;;6.47;;
42030;SDS011;27709;52.036;5.906;2023-11-19T04:51:08;34.70;;;6.60;;
42030;SDS011;27709;52.036;5.906;2023-11-19T04:53:36;35.40;;;6.90;;
42030;SDS011;27709;52.036;5.906;2023-11-19T04:56:10;43.72;;;7.03;;
42030;SDS011;27709;52.036;5.906;2023-11-19T04:58:36;30.45;;;5.70;;
42030;SDS011;27709;52.036;5.906;2023-11-19T05:01:02;29.95;;;5.28;;
42030;SDS011;27709;52.036;5.906;2023-11-19T05:03:28;38.20;;;6.47;;
42030;SDS011;27709;52.036;5.906;2023-11-19T05:05:54;33.47;;;5.25;;
42030;SDS011;27709;52.036;5.906;2023-11-19T05:08:20;46.60;;;7.78;;
42030;SDS011;27709;52.036;5.906;2023-11-19T05:10:45;40.67;;;5.78;;
42030;SDS011;27709;52.036;5.906;2023-11-19T05:13:11;37.10;;;5.85;;
42030;SDS011;27709;52.036;5.906;2023-11-19T05:15:40;38.67;;;6.10;;
42030;SDS011;27709;52.036;5.906;2023-11-19T05:18:05;44.40;;;6.28;;
42030;SDS011;27709;52.036;5.906;2023-11-19T05:20:33;30.60;;;4.82;;
42030;SDS011;27709;52.036;5.906;2023-11-19T05:22:59;37.65;;;5.80;;
42030;SDS011;27709;52.036;5.906;2023-11-19T05:25:25;38.72;;;6.35;;
42030;SDS011;27709;52.036;5.906;2023-11-19T05:27:51;36.33;;;4.93;;
42030;SDS011;27709;52.036;5.906;2023-11-19T05:30:17;37.55;;;5.32;;
42030;SDS011;27709;52.036;5.906;2023-11-19T05:32:43;37.85;;;5.65;;
42030;SDS011;27709;52.036;5.906;2023-11-19T05:35:12;41.90;;;5.60;;
42030;SDS011;27709;52.036;5.906;2023-11-19T05:37:38;38.20;;;6.32;;
42030;SDS011;27709;52.036;5.906;2023-11-19T05:40:05;28.67;;;5.28;;
42030;SDS011;27709;52.036;5.906;2023-11-19T05:42:39;33.67;;;5.50;;
42030;SDS011;27709;52.036;5.906;2023-11-19T05:45:05;29.05;;;5.18;;
42030;SDS011;27709;52.036;5.906;2023-11-19T05:47:32;29.25;;;5.15;;
42030;SDS011;27709;52.036;5.906;2023-11-19T05:49:58;40.58;;;5.72;;
42030;SDS011;27709;52.036;5.906;2023-11-19T05:52:23;31.38;;;5.00;;
42030;SDS011;27709;52.036;5.906;2023-11-19T05:54:49;33.67;;;5.28;;
42030;SDS011;27709;52.036;5.906;2023-11-19T05:57:19;39.17;;;5.97;;
42030;SDS011;27709;52.036;5.906;2023-11-19T05:59:50;32.58;;;5.28;;
42030;SDS011;27709;52.036;5.906;2023-11-19T06:02:15;34.25;;;5.63;;
42030;SDS011;27709;52.036;5.906;2023-11-19T06:04:41;38.28;;;5.32;;
42030;SDS011;27709;52.036;5.906;2023-11-19T06:07:09;38.90;;;5.93;;
42030;SDS011;27709;52.036;5.906;2023-11-19T06:09:35;32.17;;;5.05;;
42030;SDS011;27709;52.036;5.906;2023-11-19T06:12:00;33.58;;;4.78;;
42030;SDS011;27709;52.036;5.906;2023-11-19T06:14:27;35.72;;;5.22;;
42030;SDS011;27709;52.036;5.906;2023-11-19T06:16:52;36.90;;;5.82;;
42030;SDS011;27709;52.036;5.906;2023-11-19T06:19:18;38.30;;;6.35;;
42030;SDS011;27709;52.036;5.906;2023-11-19T06:21:44;32.08;;;5.68;;
42030;SDS011;27709;52.036;5.906;2023-11-19T06:24:09;32.47;;;5.63;;
42030;SDS011;27709;52.036;5.906;2023-11-19T06:26:36;41.70;;;6.10;;
42030;SDS011;27709;52.036;5.906;2023-11-19T06:29:02;38.45;;;5.45;;
42030;SDS011;27709;52.036;5.906;2023-11-19T06:31:28;32.80;;;5.20;;
42030;SDS011;27709;52.036;5.906;2023-11-19T06:33:53;34.58;;;5.43;;
42030;SDS011;27709;52.036;5.906;2023-11-19T06:36:19;34.65;;;5.53;;
42030;SDS011;27709;52.036;5.906;2023-11-19T06:38:44;37.80;;;5.78;;
42030;SDS011;27709;52.036;5.906;2023-11-19T06:41:10;36.58;;;5.95;;
42030;SDS011;27709;52.036;5.906;2023-11-19T06:43:36;34.17;;;5.72;;
42030;SDS011;27709;52.036;5.906;2023-11-19T06:46:02;39.38;;;6.80;;
42030;SDS011;27709;52.036;5.906;2023-11-19T06:48:30;35.53;;;5.32;;
42030;SDS011;27709;52.036;5.906;2023-11-19T06:50:57;40.38;;;5.75;;
42030;SDS011;27709;52.036;5.906;2023-11-19T06:53:22;31.42;;;5.25;;
42030;SDS011;27709;52.036;5.906;2023-11-19T06:55:48;36.45;;;6.07;;
42030;SDS011;27709;52.036;5.906;2023-11-19T06:58:14;47.47;;;6.97;;
42030;SDS011;27709;52.036;5.906;2023-11-19T07:00:39;36.55;;;5.38;;
42030;SDS011;27709;52.036;5.906;2023-11-19T07:03:05;33.90;;;5.57;;
42030;SDS011;27709;52.036;5.906;2023-11-19T07:05:35;33.67;;;5.35;;
42030;SDS011;27709;52.036;5.906;2023-11-19T07:08:03;38.05;;;6.30;;
42030;SDS011;27709;52.036;5.906;2023-11-19T07:10:29;36.78;;;6.68;;
42030;SDS011;27709;52.036;5.906;2023-11-19T07:12:56;43.20;;;6.32;;
42030;SDS011;27709;52.036;5.906;2023-11-19T07:15:22;36.90;;;5.97;;
42030;SDS011;27709;52.036;5.906;2023-11-19T07:17:48;35.08;;;5.78;;
42030;SDS011;27709;52.036;5.906;2023-11-19T07:20:13;38.03;;;5.38;;
42030;SDS011;27709;52.036;5.906;2023-11-19T07:22:40;28.73;;;4.97;;
42030;SDS011;27709;52.036;5.906;2023-11-19T07:25:08;29.35;;;4.95;;
42030;SDS011;27709;52.036;5.906;2023-11-19T07:27:33;45.58;;;6.03;;
42030;SDS011;27709;52.036;5.906;2023-11-19T07:29:59;32.70;;;5.10;;
42030;SDS011;27709;52.036;5.906;2023-11-19T07:32:24;33.22;;;6.07;;
42030;SDS011;27709;52.036;5.906;2023-11-19T07:34:50;32.22;;;5.28;;
42030;SDS011;27709;52.036;5.906;2023-11-19T07:37:16;34.78;;;4.88;;
42030;SDS011;27709;52.036;5.906;2023-11-19T07:39:42;27.50;;;4.30;;
42030;SDS011;27709;52.036;5.906;2023-11-19T07:42:07;42.70;;;6.15;;
42030;SDS011;27709;52.036;5.906;2023-11-19T07:44:34;35.30;;;5.97;;
42030;SDS011;27709;52.036;5.906;2023-11-19T07:46:59;33.67;;;5.13;;
42030;SDS011;27709;52.036;5.906;2023-11-19T07:49:25;29.05;;;4.95;;
42030;SDS011;27709;52.036;5.906;2023-11-19T07:51:52;40.10;;;6.32;;
42030;SDS011;27709;52.036;5.906;2023-11-19T07:54:18;29.40;;;5.45;;
42030;SDS011;27709;52.036;5.906;2023-11-19T07:56:43;41.70;;;6.00;;
42030;SDS011;27709;52.036;5.906;2023-11-19T07:59:09;34.00;;;5.20;;
42030;SDS011;27709;52.036;5.906;2023-11-19T08:01:34;36.10;;;5.25;;
42030;SDS011;27709;52.036;5.906;2023-11-19T08:04:00;36.33;;;5.82;;
42030;SDS011;27709;52.036;5.906;2023-11-19T08:06:26;38.30;;;5.95;;
42030;SDS011;27709;52.036;5.906;2023-11-19T08:08:52;38.97;;;5.47;;
42030;SDS011;27709;52.036;5.906;2023-11-19T08:11:18;39.60;;;5.40;;
42030;SDS011;27709;52.036;5.906;2023-11-19T08:13:44;29.15;;;4.95;;
42030;SDS011;27709;52.036;5.906;2023-11-19T08:16:10;30.20;;;5.32;;
42030;SDS011;27709;52.036;5.906;2023-11-19T08:18:36;40.55;;;5.90;;
42030;SDS011;27709;52.036;5.906;2023-11-19T08:21:01;34.15;;;5.07;;
42030;SDS011;27709;52.036;5.906;2023-11-19T08:23:29;43.45;;;5.85;;
42030;SDS011;27709;52.036;5.906;2023-11-19T08:26:04;32.10;;;4.63;;
42030;SDS011;27709;52.036;5.906;2023-11-19T08:28:31;44.28;;;6.75;;
42030;SDS011;27709;52.036;5.906;2023-11-19T08:30:59;29.83;;;5.47;;
42030;SDS011;27709;52.036;5.906;2023-11-19T08:33:24;31.65;;;5.03;;
42030;SDS011;27709;52.036;5.906;2023-11-19T08:35:51;41.20;;;5.40;;
42030;SDS011;27709;52.036;5.906;2023-11-19T08:38:16;32.53;;;5.00;;
42030;SDS011;27709;52.036;5.906;2023-11-19T08:40:42;39.88;;;5.72;;
42030;SDS011;27709;52.036;5.906;2023-11-19T08:43:07;32.03;;;5.03;;
42030;SDS011;27709;52.036;5.906;2023-11-19T08:45:33;39.80;;;5.90;;
42030;SDS011;27709;52.036;5.906;2023-11-19T08:47:58;29.15;;;5.32;;
42030;SDS011;27709;52.036;5.906;2023-11-19T08:50:24;28.48;;;5.15;;
42030;SDS011;27709;52.036;5.906;2023-11-19T08:52:50;34.03;;;5.38;;
42030;SDS011;27709;52.036;5.906;2023-11-19T08:55:15;33.53;;;5.43;;
42030;SDS011;27709;52.036;5.906;2023-11-19T08:57:41;32.17;;;5.22;;
42030;SDS011;27709;52.036;5.906;2023-11-19T09:00:07;36.67;;;5.78;;
42030;SDS011;27709;52.036;5.906;2023-11-19T09:02:33;35.10;;;5.25;;
42030;SDS011;27709;52.036;5.906;2023-11-19T09:05:00;34.45;;;4.85;;
42030;SDS011;27709;52.036;5.906;2023-11-19T09:07:26;30.42;;;4.65;;
42030;SDS011;27709;52.036;5.906;2023-11-19T09:09:52;29.15;;;5.32;;
42030;SDS011;27709;52.036;5.906;2023-11-19T09:12:18;33.70;;;4.80;;
42030;SDS011;27709;52.036;5.906;2023-11-19T09:14:43;40.85;;;6.03;;
42030;SDS011;27709;52.036;5.906;2023-11-19T09:17:10;29.20;;;4.85;;
42030;SDS011;27709;52.036;5.906;2023-11-19T09:19:36;33.72;;;5.47;;
42030;SDS011;27709;52.036;5.906;2023-11-19T09:22:01;31.23;;;5.28;;
42030;SDS011;27709;52.036;5.906;2023-11-19T09:24:28;28.90;;;4.97;;
42030;SDS011;27709;52.036;5.906;2023-11-19T09:26:54;32.80;;;4.53;;
42030;SDS011;27709;52.036;5.906;2023-11-19T09:29:21;28.33;;;5.18;;
42030;SDS011;27709;52.036;5.906;2023-11-19T09:31:47;33.03;;;5.22;;
42030;SDS011;27709;52.036;5.906;2023-11-19T09:34:12;36.30;;;5.00;;
42030;SDS011;27709;52.036;5.906;2023-11-19T09:36:38;35.08;;;5.57;;
42030;SDS011;27709;52.036;5.906;2023-11-19T09:39:08;37.72;;;5.07;;
42030;SDS011;27709;52.036;5.906;2023-11-19T09:41:35;32.53;;;4.78;;
42030;SDS011;27709;52.036;5.906;2023-11-19T09:44:00;30.25;;;5.05;;
42030;SDS011;27709;52.036;5.906;2023-11-19T09:46:26;36.85;;;4.88;;
42030;SDS011;27709;52.036;5.906;2023-11-19T09:48:57;36.90;;;4.80;;
42030;SDS011;27709;52.036;5.906;2023-11-19T09:51:27;33.17;;;4.97;;
42030;SDS011;27709;52.036;5.906;2023-11-19T09:53:53;35.03;;;5.18;;
42030;SDS011;27709;52.036;5.906;2023-11-19T09:56:18;30.80;;;4.68;;
42030;SDS011;27709;52.036;5.906;2023-11-19T09:58:44;31.92;;;5.20;;
42030;SDS011;27709;52.036;5.906;2023-11-19T10:01:10;33.47;;;5.65;;
42030;SDS011;27709;52.036;5.906;2023-11-19T10:03:37;31.63;;;4.32;;
42030;SDS011;27709;52.036;5.906;2023-11-19T10:06:06;31.45;;;4.88;;
42030;SDS011;27709;52.036;5.906;2023-11-19T10:08:39;33.25;;;5.22;;
42030;SDS011;27709;52.036;5.906;2023-11-19T10:11:05;35.53;;;5.68;;
42030;SDS011;27709;52.036;5.906;2023-11-19T10:13:31;29.15;;;4.15;;
42030;SDS011;27709;52.036;5.906;2023-11-19T10:16:06;32.30;;;5.40;;
42030;SDS011;27709;52.036;5.906;2023-11-19T10:18:33;23.50;;;4.32;;
42030;SDS011;27709;52.036;5.906;2023-11-19T10:21:03;34.97;;;5.57;;
42030;SDS011;27709;52.036;5.906;2023-11-19T10:23:54;28.17;;;4.88;;
42030;SDS011;27709;52.036;5.906;2023-11-19T10:26:29;32.35;;;5.60;;
42030;SDS011;27709;52.036;5.906;2023-11-19T10:28:55;30.40;;;4.65;;
42030;SDS011;27709;52.036;5.906;2023-11-19T10:31:21;29.40;;;4.20;;
42030;SDS011;27709;52.036;5.906;2023-11-19T10:33:53;34.42;;;4.90;;
42030;SDS011;27709;52.036;5.906;2023-11-19T10:36:19;29.52;;;4.45;;
42030;SDS011;27709;52.036;5.906;2023-11-19T10:38:54;30.90;;;5.07;;
42030;SDS011;27709;52.036;5.906;2023-11-19T10:41:28;32.28;;;5.38;;
42030;SDS011;27709;52.036;5.906;2023-11-19T10:43:54;29.85;;;4.38;;
42030;SDS011;27709;52.036;5.906;2023-11-19T10:46:19;28.33;;;5.40;;
42030;SDS011;27709;52.036;5.906;2023-11-19T10:48:48;31.40;;;5.00;;
42030;SDS011;27709;52.036;5.906;2023-11-19T10:51:16;28.23;;;4.32;;
42030;SDS011;27709;52.036;5.906;2023-11-19T10:53:49;32.42;;;5.22;;
42030;SDS011;27709;52.036;5.906;2023-11-19T10:56:17;28.90;;;4.47;;
42030;SDS011;27709;52.036;5.906;2023-11-19T10:58:50;24.15;;;4.05;;
42030;SDS011;27709;52.036;5.906;2023-11-19T11:01:21;31.23;;;4.55;;
42030;SDS011;27709;52.036;5.906;2023-11-19T11:03:52;25.95;;;4.57;;
42030;SDS011;27709;52.036;5.906;2023-11-19T11:06:21;32.15;;;5.07;;
42030;SDS011;27709;52.036;5.906;2023-11-19T11:08:48;28.30;;;4.63;;
42030;SDS011;27709;52.036;5.906;2023-11-19T11:11:15;32.15;;;5.18;;
42030;SDS011;27709;52.036;5.906;2023-11-19T11:13:45;27.90;;;4.25;;
42030;SDS011;27709;52.036;5.906;2023-11-19T11:16:14;26.73;;;4.10;;
42030;SDS011;27709;52.036;5.906;2023-11-19T11:18:43;30.77;;;4.75;;
42030;SDS011;27709;52.036;5.906;2023-11-19T11:21:14;25.88;;;4.30;;
42030;SDS011;27709;52.036;5.906;2023-11-19T11:29:31;29.27;;;4.15;;
42030;SDS011;27709;52.036;5.906;2023-11-19T11:32:29;27.20;;;5.35;;
42030;SDS011;27709;52.036;5.906;2023-11-19T11:35:14;31.88;;;4.57;;
42030;SDS011;27709;52.036;5.906;2023-11-19T11:37:47;26.85;;;5.03;;
42030;SDS011;27709;52.036;5.906;2023-11-19T11:40:18;26.52;;;4.25;;
42030;SDS011;27709;52.036;5.906;2023-11-19T11:42:44;29.10;;;4.88;;
42030;SDS011;27709;52.036;5.906;2023-11-19T11:45:12;27.27;;;4.25;;
42030;SDS011;27709;52.036;5.906;2023-11-19T11:55:24;31.75;;;4.47;;
42030;SDS011;27709;52.036;5.906;2023-11-19T11:58:08;26.77;;;4.28;;
42030;SDS011;27709;52.036;5.906;2023-11-19T12:00:38;35.78;;;5.30;;
42030;SDS011;27709;52.036;5.906;2023-11-19T12:03:05;27.95;;;4.15;;
42030;SDS011;27709;52.036;5.906;2023-11-19T12:05:32;27.38;;;5.20;;
42030;SDS011;27709;52.036;5.906;2023-11-19T12:08:04;28.40;;;5.15;;
42030;SDS011;27709;52.036;5.906;2023-11-19T12:10:49;24.35;;;4.15;;
42030;SDS011;27709;52.036;5.906;2023-11-19T12:13:16;26.50;;;4.00;;
42030;SDS011;27709;52.036;5.906;2023-11-19T12:18:28;26.08;;;3.92;;
42030;SDS011;27709;52.036;5.906;2023-11-19T12:20:55;24.25;;;4.10;;
42030;SDS011;27709;52.036;5.906;2023-11-19T12:23:25;23.88;;;3.95;;
42030;SDS011;27709;52.036;5.906;2023-11-19T12:25:54;29.15;;;3.30;;
42030;SDS011;27709;52.036;5.906;2023-11-19T12:28:20;17.42;;;2.90;;
42030;SDS011;27709;52.036;5.906;2023-11-19T12:30:45;20.00;;;2.95;;
42030;SDS011;27709;52.036;5.906;2023-11-19T12:33:12;20.05;;;3.40;;
42030;SDS011;27709;52.036;5.906;2023-11-19T12:35:41;21.45;;;3.20;;
42030;SDS011;27709;52.036;5.906;2023-11-19T12:38:08;21.83;;;3.40;;
42030;SDS011;27709;52.036;5.906;2023-11-19T12:40:47;17.15;;;2.38;;
42030;SDS011;27709;52.036;5.906;2023-11-19T12:43:27;20.23;;;3.45;;
42030;SDS011;27709;52.036;5.906;2023-11-19T12:45:53;19.60;;;2.65;;
42030;SDS011;27709;52.036;5.906;2023-11-19T12:48:19;20.50;;;3.45;;
42030;SDS011;27709;52.036;5.906;2023-11-19T12:50:55;17.45;;;2.70;;
42030;SDS011;27709;52.036;5.906;2023-11-19T12:53:22;17.77;;;3.35;;
42030;SDS011;27709;52.036;5.906;2023-11-19T12:55:49;20.45;;;3.35;;
42030;SDS011;27709;52.036;5.906;2023-11-19T13:01:03;23.38;;;3.10;;
42030;SDS011;27709;52.036;5.906;2023-11-19T13:03:31;21.17;;;3.00;;
42030;SDS011;27709;52.036;5.906;2023-11-19T13:06:10;20.38;;;3.63;;
42030;SDS011;27709;52.036;5.906;2023-11-19T13:08:43;16.55;;;2.80;;
42030;SDS011;27709;52.036;5.906;2023-11-19T13:11:10;22.52;;;3.20;;
42030;SDS011;27709;52.036;5.906;2023-11-19T13:16:41;21.17;;;3.58;;
42030;SDS011;27709;52.036;5.906;2023-11-19T13:19:10;20.75;;;3.97;;
42030;SDS011;27709;52.036;5.906;2023-11-19T13:21:36;20.33;;;3.70;;
42030;SDS011;27709;52.036;5.906;2023-11-19T13:24:03;13.35;;;2.45;;
42030;SDS011;27709;52.036;5.906;2023-11-19T13:26:28;21.20;;;3.33;;
42030;SDS011;27709;52.036;5.906;2023-11-19T13:28:54;22.20;;;3.28;;
42030;SDS011;27709;52.036;5.906;2023-11-19T13:31:19;23.20;;;3.47;;
42030;SDS011;27709;52.036;5.906;2023-11-19T13:33:45;22.90;;;3.67;;
42030;SDS011;27709;52.036;5.906;2023-11-19T13:36:11;22.00;;;3.38;;
42030;SDS011;27709;52.036;5.906;2023-11-19T13:38:37;20.77;;;3.10;;
42030;SDS011;27709;52.036;5.906;2023-11-19T13:41:03;19.67;;;3.63;;
42030;SDS011;27709;52.036;5.906;2023-11-19T13:43:33;18.45;;;3.30;;
42030;SDS011;27709;52.036;5.906;2023-11-19T13:45:59;25.70;;;3.80;;
42030;SDS011;27709;52.036;5.906;2023-11-19T13:48:24;20.88;;;3.70;;
42030;SDS011;27709;52.036;5.906;2023-11-19T13:50:51;27.23;;;3.72;;
42030;SDS011;27709;52.036;5.906;2023-11-19T13:53:17;23.92;;;3.63;;
42030;SDS011;27709;52.036;5.906;2023-11-19T13:55:43;27.50;;;3.95;;
42030;SDS011;27709;52.036;5.906;2023-11-19T13:58:09;19.27;;;3.35;;
42030;SDS011;27709;52.036;5.906;2023-11-19T14:00:35;25.17;;;4.00;;
42030;SDS011;27709;52.036;5.906;2023-11-19T14:03:01;18.50;;;3.63;;
42030;SDS011;27709;52.036;5.906;2023-11-19T14:05:27;28.35;;;4.43;;
42030;SDS011;27709;52.036;5.906;2023-11-19T14:07:53;16.10;;;3.25;;
42030;SDS011;27709;52.036;5.906;2023-11-19T14:10:21;22.02;;;3.97;;
42030;SDS011;27709;52.036;5.906;2023-11-19T14:12:47;20.30;;;3.67;;
42030;SDS011;27709;52.036;5.906;2023-11-19T14:15:12;21.48;;;3.58;;
42030;SDS011;27709;52.036;5.906;2023-11-19T14:17:38;17.98;;;3.33;;
42030;SDS011;27709;52.036;5.906;2023-11-19T14:20:05;21.58;;;3.95;;
42030;SDS011;27709;52.036;5.906;2023-11-19T14:22:44;22.80;;;3.80;;
42030;SDS011;27709;52.036;5.906;2023-11-19T14:25:13;22.35;;;3.53;;
42030;SDS011;27709;52.036;5.906;2023-11-19T14:27:40;20.67;;;3.25;;
42030;SDS011;27709;52.036;5.906;2023-11-19T14:30:07;21.00;;;3.35;;
42030;SDS011;27709;52.036;5.906;2023-11-19T14:32:37;15.25;;;2.80;;
42030;SDS011;27709;52.036;5.906;2023-11-19T14:35:06;17.20;;;3.20;;
42030;SDS011;27709;52.036;5.906;2023-11-19T14:37:32;20.92;;;3.17;;
42030;SDS011;27709;52.036;5.906;2023-11-19T14:39:58;21.35;;;3.90;;
42030;SDS011;27709;52.036;5.906;2023-11-19T14:42:24;24.73;;;3.42;;
42030;SDS011;27709;52.036;5.906;2023-11-19T14:44:50;22.00;;;3.33;;
42030;SDS011;27709;52.036;5.906;2023-11-19T14:47:20;24.30;;;3.92;;
42030;SDS011;27709;52.036;5.906;2023-11-19T14:49:46;16.75;;;3.20;;
42030;SDS011;27709;52.036;5.906;2023-11-19T14:52:11;22.10;;;4.10;;
42030;SDS011;27709;52.036;5.906;2023-11-19T14:54:37;21.00;;;3.88;;
42030;SDS011;27709;52.036;5.906;2023-11-19T14:57:03;24.23;;;3.83;;
42030;SDS011;27709;52.036;5.906;2023-11-19T14:59:33;17.70;;;3.03;;